sensor_id;sensor_type;location;lat;lon;timestamp;temperature;humidity
44607;DHT22;30315;46.072;14.474;2022-07-19T00:00:26;24.50;53.30
44607;DHT22;30315;46.072;14.474;2022-07-19T00:02:53;24.40;53.50
44607;DHT22;30315;46.072;14.474;2022-07-19T00:05:20;24.40;53.80
44607;DHT22;30315;46.072;14.474;2022-07-19T00:07:48;24.30;53.60
44607;DHT22;30315;46.072;14.474;2022-07-19T00:10:16;24.30;53.70
44607;DHT22;30315;46.072;14.474;2022-07-19T00:12:43;24.30;53.50
44607;DHT22;30315;46.072;14.474;2022-07-19T00:15:23;24.30;53.40
44607;DHT22;30315;46.072;14.474;2022-07-19T00:17:53;24.30;53.50
44607;DHT22;30315;46.072;14.474;2022-07-19T00:20:21;24.20;53.60
44607;DHT22;30315;46.072;14.474;2022-07-19T00:22:49;24.30;53.80
44607;DHT22;30315;46.072;14.474;2022-07-19T00:25:16;24.40;54.10
44607;DHT22;30315;46.072;14.474;2022-07-19T00:27:43;24.20;53.90
44607;DHT22;30315;46.072;14.474;2022-07-19T00:30:11;24.20;53.90
44607;DHT22;30315;46.072;14.474;2022-07-19T00:32:38;24.10;54.10
44607;DHT22;30315;46.072;14.474;2022-07-19T00:35:06;24.10;54.40
44607;DHT22;30315;46.072;14.474;2022-07-19T00:37:33;23.90;54.30
44607;DHT22;30315;46.072;14.474;2022-07-19T00:40:00;23.90;54.50
44607;DHT22;30315;46.072;14.474;2022-07-19T00:42:28;23.90;54.30
44607;DHT22;30315;46.072;14.474;2022-07-19T00:44:55;23.90;54.10
44607;DHT22;30315;46.072;14.474;2022-07-19T00:47:22;23.90;54.10
44607;DHT22;30315;46.072;14.474;2022-07-19T00:49:49;23.80;54.20
44607;DHT22;30315;46.072;14.474;2022-07-19T00:52:19;23.80;54.70
44607;DHT22;30315;46.072;14.474;2022-07-19T00:54:49;23.80;54.70
44607;DHT22;30315;46.072;14.474;2022-07-19T00:57:19;23.70;54.50
44607;DHT22;30315;46.072;14.474;2022-07-19T00:59:47;23.70;55.40
44607;DHT22;30315;46.072;14.474;2022-07-19T01:02:16;23.70;55.50
44607;DHT22;30315;46.072;14.474;2022-07-19T01:04:44;23.60;55.30
44607;DHT22;30315;46.072;14.474;2022-07-19T01:07:12;23.60;55.50
44607;DHT22;30315;46.072;14.474;2022-07-19T01:09:41;23.50;55.30
44607;DHT22;30315;46.072;14.474;2022-07-19T01:12:09;23.50;55.40
44607;DHT22;30315;46.072;14.474;2022-07-19T01:14:36;23.50;55.30
44607;DHT22;30315;46.072;14.474;2022-07-19T01:17:04;23.50;55.30
44607;DHT22;30315;46.072;14.474;2022-07-19T01:19:33;23.30;55.40
44607;DHT22;30315;46.072;14.474;2022-07-19T01:22:00;23.30;55.60
44607;DHT22;30315;46.072;14.474;2022-07-19T01:24:27;23.20;55.30
44607;DHT22;30315;46.072;14.474;2022-07-19T01:26:55;23.20;55.00
44607;DHT22;30315;46.072;14.474;2022-07-19T01:29:22;23.10;55.80
44607;DHT22;30315;46.072;14.474;2022-07-19T01:31:49;23.10;55.90
44607;DHT22;30315;46.072;14.474;2022-07-19T01:34:16;23.10;55.90
44607;DHT22;30315;46.072;14.474;2022-07-19T01:36:43;23.00;56.10
44607;DHT22;30315;46.072;14.474;2022-07-19T01:39:10;23.00;56.40
44607;DHT22;30315;46.072;14.474;2022-07-19T01:41:37;23.00;56.50
44607;DHT22;30315;46.072;14.474;2022-07-19T01:44:04;23.00;56.50
44607;DHT22;30315;46.072;14.474;2022-07-19T01:46:31;22.90;56.40
44607;DHT22;30315;46.072;14.474;2022-07-19T01:48:59;23.00;56.50
44607;DHT22;30315;46.072;14.474;2022-07-19T01:51:26;23.30;56.80
44607;DHT22;30315;46.072;14.474;2022-07-19T01:53:53;22.90;56.40
44607;DHT22;30315;46.072;14.474;2022-07-19T01:56:21;22.90;56.80
44607;DHT22;30315;46.072;14.474;2022-07-19T01:58:48;22.80;56.50
44607;DHT22;30315;46.072;14.474;2022-07-19T02:01:15;22.80;56.40
44607;DHT22;30315;46.072;14.474;2022-07-19T02:03:43;22.70;56.40
44607;DHT22;30315;46.072;14.474;2022-07-19T02:06:10;22.70;56.70
44607;DHT22;30315;46.072;14.474;2022-07-19T02:08:38;22.70;56.60
44607;DHT22;30315;46.072;14.474;2022-07-19T02:14:09;22.60;56.60
44607;DHT22;30315;46.072;14.474;2022-07-19T02:16:38;22.60;56.60
44607;DHT22;30315;46.072;14.474;2022-07-19T02:19:06;22.40;56.80
44607;DHT22;30315;46.072;14.474;2022-07-19T02:21:35;22.30;56.90
44607;DHT22;30315;46.072;14.474;2022-07-19T02:24:05;22.30;57.10
44607;DHT22;30315;46.072;14.474;2022-07-19T02:26:33;22.30;57.90
44607;DHT22;30315;46.072;14.474;2022-07-19T02:29:04;22.30;57.70
44607;DHT22;30315;46.072;14.474;2022-07-19T02:31:31;22.30;57.80
44607;DHT22;30315;46.072;14.474;2022-07-19T02:33:59;22.30;57.70
44607;DHT22;30315;46.072;14.474;2022-07-19T02:36:26;22.30;57.70
44607;DHT22;30315;46.072;14.474;2022-07-19T02:38:53;22.30;57.70
44607;DHT22;30315;46.072;14.474;2022-07-19T02:41:20;22.20;57.70
44607;DHT22;30315;46.072;14.474;2022-07-19T02:43:47;22.20;57.50
44607;DHT22;30315;46.072;14.474;2022-07-19T02:46:14;22.10;57.50
44607;DHT22;30315;46.072;14.474;2022-07-19T02:48:41;22.10;57.60
44607;DHT22;30315;46.072;14.474;2022-07-19T02:51:11;22.00;57.80
44607;DHT22;30315;46.072;14.474;2022-07-19T02:53:38;22.00;58.30
44607;DHT22;30315;46.072;14.474;2022-07-19T02:56:06;22.00;58.50
44607;DHT22;30315;46.072;14.474;2022-07-19T02:58:33;22.00;58.00
44607;DHT22;30315;46.072;14.474;2022-07-19T03:01:00;21.90;58.70
44607;DHT22;30315;46.072;14.474;2022-07-19T03:03:27;21.90;58.70
44607;DHT22;30315;46.072;14.474;2022-07-19T03:06:15;21.90;59.00
44607;DHT22;30315;46.072;14.474;2022-07-19T03:08:42;21.90;58.60
44607;DHT22;30315;46.072;14.474;2022-07-19T03:11:10;21.90;58.60
44607;DHT22;30315;46.072;14.474;2022-07-19T03:13:37;21.90;58.60
44607;DHT22;30315;46.072;14.474;2022-07-19T03:16:04;21.80;58.40
44607;DHT22;30315;46.072;14.474;2022-07-19T03:18:32;21.80;58.80
44607;DHT22;30315;46.072;14.474;2022-07-19T03:20:59;21.80;58.80
44607;DHT22;30315;46.072;14.474;2022-07-19T03:23:30;21.90;58.90
44607;DHT22;30315;46.072;14.474;2022-07-19T03:25:58;21.90;59.00
44607;DHT22;30315;46.072;14.474;2022-07-19T03:28:25;21.90;59.20
44607;DHT22;30315;46.072;14.474;2022-07-19T03:30:53;22.00;59.10
44607;DHT22;30315;46.072;14.474;2022-07-19T03:33:20;22.00;58.80
44607;DHT22;30315;46.072;14.474;2022-07-19T03:35:47;22.00;59.00
44607;DHT22;30315;46.072;14.474;2022-07-19T03:38:14;22.00;59.10
44607;DHT22;30315;46.072;14.474;2022-07-19T03:40:45;22.00;58.90
44607;DHT22;30315;46.072;14.474;2022-07-19T03:43:15;22.00;58.80
44607;DHT22;30315;46.072;14.474;2022-07-19T03:45:44;22.00;58.80
44607;DHT22;30315;46.072;14.474;2022-07-19T03:48:12;22.00;58.80
44607;DHT22;30315;46.072;14.474;2022-07-19T03:50:39;22.00;58.90
44607;DHT22;30315;46.072;14.474;2022-07-19T03:53:06;22.00;58.80
44607;DHT22;30315;46.072;14.474;2022-07-19T03:55:33;22.00;59.10
44607;DHT22;30315;46.072;14.474;2022-07-19T03:58:01;22.00;59.10
44607;DHT22;30315;46.072;14.474;2022-07-19T04:00:31;22.00;58.70
44607;DHT22;30315;46.072;14.474;2022-07-19T04:02:59;22.00;58.90
44607;DHT22;30315;46.072;14.474;2022-07-19T04:05:26;22.10;59.20
44607;DHT22;30315;46.072;14.474;2022-07-19T04:07:53;22.00;58.90
44607;DHT22;30315;46.072;14.474;2022-07-19T04:10:20;22.00;59.00
44607;DHT22;30315;46.072;14.474;2022-07-19T04:12:47;22.10;59.10
44607;DHT22;30315;46.072;14.474;2022-07-19T04:15:14;22.10;58.80
44607;DHT22;30315;46.072;14.474;2022-07-19T04:17:41;22.10;59.00
44607;DHT22;30315;46.072;14.474;2022-07-19T04:20:08;22.10;58.90
44607;DHT22;30315;46.072;14.474;2022-07-19T04:22:35;22.10;58.90
44607;DHT22;30315;46.072;14.474;2022-07-19T04:25:03;22.10;59.00
44607;DHT22;30315;46.072;14.474;2022-07-19T04:27:30;22.20;58.80
44607;DHT22;30315;46.072;14.474;2022-07-19T04:29:57;22.10;58.90
44607;DHT22;30315;46.072;14.474;2022-07-19T04:32:25;22.10;58.90
44607;DHT22;30315;46.072;14.474;2022-07-19T04:34:51;22.10;59.00
44607;DHT22;30315;46.072;14.474;2022-07-19T04:37:18;22.10;59.10
44607;DHT22;30315;46.072;14.474;2022-07-19T04:39:45;22.10;59.50
44607;DHT22;30315;46.072;14.474;2022-07-19T04:42:12;22.20;58.90
44607;DHT22;30315;46.072;14.474;2022-07-19T04:44:39;22.10;58.90
44607;DHT22;30315;46.072;14.474;2022-07-19T04:47:06;22.20;59.00
44607;DHT22;30315;46.072;14.474;2022-07-19T04:49:33;22.10;59.00
44607;DHT22;30315;46.072;14.474;2022-07-19T04:52:00;22.20;59.20
44607;DHT22;30315;46.072;14.474;2022-07-19T04:54:27;22.20;59.50
44607;DHT22;30315;46.072;14.474;2022-07-19T04:56:54;22.20;59.50
44607;DHT22;30315;46.072;14.474;2022-07-19T04:59:21;22.30;59.30
44607;DHT22;30315;46.072;14.474;2022-07-19T05:01:48;22.30;59.20
44607;DHT22;30315;46.072;14.474;2022-07-19T05:04:19;22.30;59.10
44607;DHT22;30315;46.072;14.474;2022-07-19T05:06:46;22.30;59.00
44607;DHT22;30315;46.072;14.474;2022-07-19T05:09:13;22.30;59.00
44607;DHT22;30315;46.072;14.474;2022-07-19T05:11:44;22.40;58.90
44607;DHT22;30315;46.072;14.474;2022-07-19T05:14:11;22.40;59.10
44607;DHT22;30315;46.072;14.474;2022-07-19T05:16:38;22.40;58.90
44607;DHT22;30315;46.072;14.474;2022-07-19T05:19:06;22.50;59.20
44607;DHT22;30315;46.072;14.474;2022-07-19T05:21:33;22.50;59.20
44607;DHT22;30315;46.072;14.474;2022-07-19T05:24:01;22.50;59.30
44607;DHT22;30315;46.072;14.474;2022-07-19T05:26:28;22.60;59.20
44607;DHT22;30315;46.072;14.474;2022-07-19T05:28:55;22.60;58.90
44607;DHT22;30315;46.072;14.474;2022-07-19T05:31:22;22.60;58.50
44607;DHT22;30315;46.072;14.474;2022-07-19T05:33:50;22.60;58.70
44607;DHT22;30315;46.072;14.474;2022-07-19T05:36:17;22.80;58.70
44607;DHT22;30315;46.072;14.474;2022-07-19T05:38:44;22.70;58.30
44607;DHT22;30315;46.072;14.474;2022-07-19T05:41:11;22.80;57.90
44607;DHT22;30315;46.072;14.474;2022-07-19T05:43:39;22.80;57.80
44607;DHT22;30315;46.072;14.474;2022-07-19T05:46:06;22.80;57.80
44607;DHT22;30315;46.072;14.474;2022-07-19T05:48:33;22.80;57.90
44607;DHT22;30315;46.072;14.474;2022-07-19T05:51:00;22.90;57.80
44607;DHT22;30315;46.072;14.474;2022-07-19T05:53:27;22.90;57.80
44607;DHT22;30315;46.072;14.474;2022-07-19T05:55:55;23.00;58.10
44607;DHT22;30315;46.072;14.474;2022-07-19T05:58:22;23.00;57.60
44607;DHT22;30315;46.072;14.474;2022-07-19T06:00:50;23.00;57.50
44607;DHT22;30315;46.072;14.474;2022-07-19T06:03:36;23.00;57.80
44607;DHT22;30315;46.072;14.474;2022-07-19T06:06:03;23.10;57.50
44607;DHT22;30315;46.072;14.474;2022-07-19T06:08:31;23.10;57.50
44607;DHT22;30315;46.072;14.474;2022-07-19T06:10:59;23.20;57.70
44607;DHT22;30315;46.072;14.474;2022-07-19T06:13:33;23.20;57.20
44607;DHT22;30315;46.072;14.474;2022-07-19T06:16:02;23.30;57.10
44607;DHT22;30315;46.072;14.474;2022-07-19T06:18:39;23.40;57.20
44607;DHT22;30315;46.072;14.474;2022-07-19T06:21:13;23.40;57.10
44607;DHT22;30315;46.072;14.474;2022-07-19T06:23:56;23.50;57.10
44607;DHT22;30315;46.072;14.474;2022-07-19T06:26:24;23.30;56.50
44607;DHT22;30315;46.072;14.474;2022-07-19T06:28:54;23.60;56.60
44607;DHT22;30315;46.072;14.474;2022-07-19T06:31:21;23.70;56.60
44607;DHT22;30315;46.072;14.474;2022-07-19T06:33:50;23.70;56.40
44607;DHT22;30315;46.072;14.474;2022-07-19T06:36:18;23.80;56.20
44607;DHT22;30315;46.072;14.474;2022-07-19T06:38:46;23.80;55.70
44607;DHT22;30315;46.072;14.474;2022-07-19T06:41:14;23.90;55.70
44607;DHT22;30315;46.072;14.474;2022-07-19T06:43:41;23.90;56.10
44607;DHT22;30315;46.072;14.474;2022-07-19T06:46:08;24.00;56.00
44607;DHT22;30315;46.072;14.474;2022-07-19T06:48:36;24.00;55.80
44607;DHT22;30315;46.072;14.474;2022-07-19T06:51:04;24.10;55.50
44607;DHT22;30315;46.072;14.474;2022-07-19T06:53:31;24.10;55.60
44607;DHT22;30315;46.072;14.474;2022-07-19T06:55:58;24.10;55.40
44607;DHT22;30315;46.072;14.474;2022-07-19T06:58:25;24.20;56.20
44607;DHT22;30315;46.072;14.474;2022-07-19T07:00:52;24.20;56.60
44607;DHT22;30315;46.072;14.474;2022-07-19T07:03:19;24.20;56.70
44607;DHT22;30315;46.072;14.474;2022-07-19T07:05:47;24.30;56.70
44607;DHT22;30315;46.072;14.474;2022-07-19T07:08:14;24.30;56.40
44607;DHT22;30315;46.072;14.474;2022-07-19T07:10:41;24.40;56.80
44607;DHT22;30315;46.072;14.474;2022-07-19T07:13:08;24.40;56.60
44607;DHT22;30315;46.072;14.474;2022-07-19T07:15:35;24.40;56.00
44607;DHT22;30315;46.072;14.474;2022-07-19T07:18:05;24.40;55.70
44607;DHT22;30315;46.072;14.474;2022-07-19T07:20:32;24.40;55.30
44607;DHT22;30315;46.072;14.474;2022-07-19T07:23:02;24.50;55.30
44607;DHT22;30315;46.072;14.474;2022-07-19T07:25:29;24.50;54.80
44607;DHT22;30315;46.072;14.474;2022-07-19T07:27:56;24.10;54.30
44607;DHT22;30315;46.072;14.474;2022-07-19T07:30:23;24.60;54.80
44607;DHT22;30315;46.072;14.474;2022-07-19T07:32:50;24.60;54.90
44607;DHT22;30315;46.072;14.474;2022-07-19T07:35:17;24.60;54.90
44607;DHT22;30315;46.072;14.474;2022-07-19T07:37:44;24.60;54.80
44607;DHT22;30315;46.072;14.474;2022-07-19T07:40:11;24.70;54.90
44607;DHT22;30315;46.072;14.474;2022-07-19T07:42:38;24.80;54.60
44607;DHT22;30315;46.072;14.474;2022-07-19T07:45:06;24.80;54.50
44607;DHT22;30315;46.072;14.474;2022-07-19T07:47:34;24.40;53.50
44607;DHT22;30315;46.072;14.474;2022-07-19T07:50:02;24.90;53.80
44607;DHT22;30315;46.072;14.474;2022-07-19T07:52:29;24.90;53.80
44607;DHT22;30315;46.072;14.474;2022-07-19T07:54:56;25.00;53.90
44607;DHT22;30315;46.072;14.474;2022-07-19T07:57:43;25.10;53.70
44607;DHT22;30315;46.072;14.474;2022-07-19T08:00:11;25.20;53.90
44607;DHT22;30315;46.072;14.474;2022-07-19T08:02:42;25.20;54.00
44607;DHT22;30315;46.072;14.474;2022-07-19T08:05:09;25.30;53.70
44607;DHT22;30315;46.072;14.474;2022-07-19T08:07:37;25.30;53.40
44607;DHT22;30315;46.072;14.474;2022-07-19T08:10:06;25.40;53.40
44607;DHT22;30315;46.072;14.474;2022-07-19T08:12:33;25.50;53.40
44607;DHT22;30315;46.072;14.474;2022-07-19T08:15:01;25.50;53.10
44607;DHT22;30315;46.072;14.474;2022-07-19T08:17:28;25.60;52.80
44607;DHT22;30315;46.072;14.474;2022-07-19T08:19:55;25.60;52.10
44607;DHT22;30315;46.072;14.474;2022-07-19T08:22:22;25.70;52.30
44607;DHT22;30315;46.072;14.474;2022-07-19T08:24:49;25.80;52.50
44607;DHT22;30315;46.072;14.474;2022-07-19T08:27:15;25.90;52.30
44607;DHT22;30315;46.072;14.474;2022-07-19T08:29:42;25.90;51.90
44607;DHT22;30315;46.072;14.474;2022-07-19T08:32:10;26.00;51.40
44607;DHT22;30315;46.072;14.474;2022-07-19T08:34:37;26.00;51.10
44607;DHT22;30315;46.072;14.474;2022-07-19T08:37:04;26.10;50.90
44607;DHT22;30315;46.072;14.474;2022-07-19T08:39:31;26.20;51.10
44607;DHT22;30315;46.072;14.474;2022-07-19T08:41:58;26.30;50.70
44607;DHT22;30315;46.072;14.474;2022-07-19T08:44:26;26.30;50.00
44607;DHT22;30315;46.072;14.474;2022-07-19T08:46:54;26.40;49.70
44607;DHT22;30315;46.072;14.474;2022-07-19T08:49:21;26.40;49.00
44607;DHT22;30315;46.072;14.474;2022-07-19T08:51:49;26.50;48.40
44607;DHT22;30315;46.072;14.474;2022-07-19T08:54:16;26.50;47.90
44607;DHT22;30315;46.072;14.474;2022-07-19T08:56:43;26.60;47.50
44607;DHT22;30315;46.072;14.474;2022-07-19T08:59:28;26.60;46.80
44607;DHT22;30315;46.072;14.474;2022-07-19T09:01:57;26.70;46.70
44607;DHT22;30315;46.072;14.474;2022-07-19T09:04:24;26.80;46.40
44607;DHT22;30315;46.072;14.474;2022-07-19T09:06:54;26.80;46.30
44607;DHT22;30315;46.072;14.474;2022-07-19T09:09:27;26.90;45.90
44607;DHT22;30315;46.072;14.474;2022-07-19T09:11:57;26.90;46.10
44607;DHT22;30315;46.072;14.474;2022-07-19T09:14:27;27.00;46.40
44607;DHT22;30315;46.072;14.474;2022-07-19T09:17:06;27.00;46.20
44607;DHT22;30315;46.072;14.474;2022-07-19T09:19:37;27.10;45.90
44607;DHT22;30315;46.072;14.474;2022-07-19T09:22:10;27.20;45.50
44607;DHT22;30315;46.072;14.474;2022-07-19T09:24:40;27.20;45.10
44607;DHT22;30315;46.072;14.474;2022-07-19T09:27:12;27.20;45.10
44607;DHT22;30315;46.072;14.474;2022-07-19T09:29:43;27.30;45.00
44607;DHT22;30315;46.072;14.474;2022-07-19T09:32:11;27.40;44.20
44607;DHT22;30315;46.072;14.474;2022-07-19T09:34:53;27.40;43.70
44607;DHT22;30315;46.072;14.474;2022-07-19T09:37:31;27.50;44.20
44607;DHT22;30315;46.072;14.474;2022-07-19T09:40:01;27.60;44.50
44607;DHT22;30315;46.072;14.474;2022-07-19T09:42:35;27.70;44.10
44607;DHT22;30315;46.072;14.474;2022-07-19T09:45:11;27.80;44.00
44607;DHT22;30315;46.072;14.474;2022-07-19T09:47:44;27.90;43.70
44607;DHT22;30315;46.072;14.474;2022-07-19T09:50:19;28.00;43.70
44607;DHT22;30315;46.072;14.474;2022-07-19T09:52:50;28.10;43.80
44607;DHT22;30315;46.072;14.474;2022-07-19T09:55:17;28.20;43.50
44607;DHT22;30315;46.072;14.474;2022-07-19T09:57:47;28.30;43.90
44607;DHT22;30315;46.072;14.474;2022-07-19T10:00:17;28.40;44.10
44607;DHT22;30315;46.072;14.474;2022-07-19T10:02:54;28.60;44.70
44607;DHT22;30315;46.072;14.474;2022-07-19T10:05:23;28.60;44.60
44607;DHT22;30315;46.072;14.474;2022-07-19T10:07:50;28.80;44.50
44607;DHT22;30315;46.072;14.474;2022-07-19T10:10:20;28.90;44.60
44607;DHT22;30315;46.072;14.474;2022-07-19T10:12:48;29.00;44.40
44607;DHT22;30315;46.072;14.474;2022-07-19T10:15:18;29.10;44.20
44607;DHT22;30315;46.072;14.474;2022-07-19T10:18:00;29.10;43.90
44607;DHT22;30315;46.072;14.474;2022-07-19T10:20:30;29.20;43.50
44607;DHT22;30315;46.072;14.474;2022-07-19T10:23:01;29.10;43.20
44607;DHT22;30315;46.072;14.474;2022-07-19T10:31:31;29.20;43.90
44607;DHT22;30315;46.072;14.474;2022-07-19T10:34:08;29.20;44.20
44607;DHT22;30315;46.072;14.474;2022-07-19T10:36:37;29.30;44.50
44607;DHT22;30315;46.072;14.474;2022-07-19T10:42:39;29.30;44.20
44607;DHT22;30315;46.072;14.474;2022-07-19T10:50:14;29.50;42.10
44607;DHT22;30315;46.072;14.474;2022-07-19T10:52:43;29.60;41.80
44607;DHT22;30315;46.072;14.474;2022-07-19T10:57:46;29.70;40.90
44607;DHT22;30315;46.072;14.474;2022-07-19T11:00:27;29.80;39.80
44607;DHT22;30315;46.072;14.474;2022-07-19T11:03:33;29.90;39.70
44607;DHT22;30315;46.072;14.474;2022-07-19T11:06:02;30.00;39.00
44607;DHT22;30315;46.072;14.474;2022-07-19T11:11:09;30.20;38.80
44607;DHT22;30315;46.072;14.474;2022-07-19T11:13:39;30.20;38.90
44607;DHT22;30315;46.072;14.474;2022-07-19T11:16:06;30.30;38.40
44607;DHT22;30315;46.072;14.474;2022-07-19T11:18:34;30.30;36.70
44607;DHT22;30315;46.072;14.474;2022-07-19T11:21:04;30.40;36.70
44607;DHT22;30315;46.072;14.474;2022-07-19T11:23:33;30.40;36.70
44607;DHT22;30315;46.072;14.474;2022-07-19T11:28:33;30.60;36.40
44607;DHT22;30315;46.072;14.474;2022-07-19T11:31:09;30.70;36.80
44607;DHT22;30315;46.072;14.474;2022-07-19T11:33:37;30.70;36.60
44607;DHT22;30315;46.072;14.474;2022-07-19T11:36:04;30.90;36.80
44607;DHT22;30315;46.072;14.474;2022-07-19T11:38:46;31.00;36.10
44607;DHT22;30315;46.072;14.474;2022-07-19T11:41:20;31.20;35.90
44607;DHT22;30315;46.072;14.474;2022-07-19T11:43:58;31.30;35.10
44607;DHT22;30315;46.072;14.474;2022-07-19T11:46:30;31.40;35.30
44607;DHT22;30315;46.072;14.474;2022-07-19T11:49:02;31.50;34.60
44607;DHT22;30315;46.072;14.474;2022-07-19T11:51:29;31.50;34.30
44607;DHT22;30315;46.072;14.474;2022-07-19T11:53:58;31.60;34.40
44607;DHT22;30315;46.072;14.474;2022-07-19T11:56:28;31.70;34.00
44607;DHT22;30315;46.072;14.474;2022-07-19T11:58:57;31.70;34.60
44607;DHT22;30315;46.072;14.474;2022-07-19T12:01:29;31.90;34.30
44607;DHT22;30315;46.072;14.474;2022-07-19T12:04:10;32.00;33.80
44607;DHT22;30315;46.072;14.474;2022-07-19T12:06:47;32.10;34.50
44607;DHT22;30315;46.072;14.474;2022-07-19T12:09:18;32.20;33.80
44607;DHT22;30315;46.072;14.474;2022-07-19T12:11:48;32.30;33.80
44607;DHT22;30315;46.072;14.474;2022-07-19T12:14:30;32.40;34.50
44607;DHT22;30315;46.072;14.474;2022-07-19T12:19:43;32.60;33.60
44607;DHT22;30315;46.072;14.474;2022-07-19T12:22:47;32.80;33.60
44607;DHT22;30315;46.072;14.474;2022-07-19T12:25:14;32.80;33.30
44607;DHT22;30315;46.072;14.474;2022-07-19T12:27:41;32.90;33.60
44607;DHT22;30315;46.072;14.474;2022-07-19T12:30:18;33.00;33.50
44607;DHT22;30315;46.072;14.474;2022-07-19T12:32:45;33.10;34.40
44607;DHT22;30315;46.072;14.474;2022-07-19T12:35:15;33.20;33.50
44607;DHT22;30315;46.072;14.474;2022-07-19T12:37:44;33.30;33.20
44607;DHT22;30315;46.072;14.474;2022-07-19T12:45:35;33.70;32.90
44607;DHT22;30315;46.072;14.474;2022-07-19T12:48:04;33.80;33.00
44607;DHT22;30315;46.072;14.474;2022-07-19T12:50:41;33.90;32.60
44607;DHT22;30315;46.072;14.474;2022-07-19T12:53:10;34.00;31.60
44607;DHT22;30315;46.072;14.474;2022-07-19T12:55:39;34.10;31.60
44607;DHT22;30315;46.072;14.474;2022-07-19T12:58:07;34.10;32.00
44607;DHT22;30315;46.072;14.474;2022-07-19T13:00:36;34.20;32.00
44607;DHT22;30315;46.072;14.474;2022-07-19T13:03:05;34.30;31.50
44607;DHT22;30315;46.072;14.474;2022-07-19T13:05:33;34.40;31.20
44607;DHT22;30315;46.072;14.474;2022-07-19T13:08:01;34.50;31.00
44607;DHT22;30315;46.072;14.474;2022-07-19T13:10:29;34.50;31.20
44607;DHT22;30315;46.072;14.474;2022-07-19T13:12:57;34.60;31.20
44607;DHT22;30315;46.072;14.474;2022-07-19T13:15:24;34.60;31.30
44607;DHT22;30315;46.072;14.474;2022-07-19T13:17:51;34.70;31.50
44607;DHT22;30315;46.072;14.474;2022-07-19T13:20:26;34.90;31.10
44607;DHT22;30315;46.072;14.474;2022-07-19T13:22:53;34.90;31.20
44607;DHT22;30315;46.072;14.474;2022-07-19T13:25:21;35.00;30.50
44607;DHT22;30315;46.072;14.474;2022-07-19T13:28:08;35.10;30.50
44607;DHT22;30315;46.072;14.474;2022-07-19T13:30:35;35.20;30.40
44607;DHT22;30315;46.072;14.474;2022-07-19T13:33:03;35.20;30.20
44607;DHT22;30315;46.072;14.474;2022-07-19T13:35:33;35.30;30.30
44607;DHT22;30315;46.072;14.474;2022-07-19T13:38:00;35.30;30.00
44607;DHT22;30315;46.072;14.474;2022-07-19T13:40:28;35.30;29.90
44607;DHT22;30315;46.072;14.474;2022-07-19T13:42:55;35.40;30.20
44607;DHT22;30315;46.072;14.474;2022-07-19T13:45:22;35.40;29.60
44607;DHT22;30315;46.072;14.474;2022-07-19T13:47:49;35.40;29.70
44607;DHT22;30315;46.072;14.474;2022-07-19T13:50:27;35.50;29.90
44607;DHT22;30315;46.072;14.474;2022-07-19T13:52:54;35.60;29.90
44607;DHT22;30315;46.072;14.474;2022-07-19T13:55:22;35.60;30.00
44607;DHT22;30315;46.072;14.474;2022-07-19T13:57:49;35.70;30.00
44607;DHT22;30315;46.072;14.474;2022-07-19T14:00:16;35.70;29.10
44607;DHT22;30315;46.072;14.474;2022-07-19T14:02:45;35.80;29.40
44607;DHT22;30315;46.072;14.474;2022-07-19T14:05:13;35.90;29.50
44607;DHT22;30315;46.072;14.474;2022-07-19T14:07:40;36.00;29.60
44607;DHT22;30315;46.072;14.474;2022-07-19T14:10:07;36.20;29.30
44607;DHT22;30315;46.072;14.474;2022-07-19T14:12:35;36.20;29.30
44607;DHT22;30315;46.072;14.474;2022-07-19T14:15:02;36.40;29.30
44607;DHT22;30315;46.072;14.474;2022-07-19T14:17:29;36.50;29.10
44607;DHT22;30315;46.072;14.474;2022-07-19T14:19:56;36.60;28.80
44607;DHT22;30315;46.072;14.474;2022-07-19T14:22:23;36.70;28.20
44607;DHT22;30315;46.072;14.474;2022-07-19T14:24:50;36.70;28.50
44607;DHT22;30315;46.072;14.474;2022-07-19T14:27:18;36.80;29.00
44607;DHT22;30315;46.072;14.474;2022-07-19T14:29:45;36.90;28.40
44607;DHT22;30315;46.072;14.474;2022-07-19T14:32:11;36.90;28.30
44607;DHT22;30315;46.072;14.474;2022-07-19T14:34:38;37.10;28.00
44607;DHT22;30315;46.072;14.474;2022-07-19T14:37:06;37.20;28.20
44607;DHT22;30315;46.072;14.474;2022-07-19T14:39:34;37.30;28.30
44607;DHT22;30315;46.072;14.474;2022-07-19T14:42:02;37.40;28.20
44607;DHT22;30315;46.072;14.474;2022-07-19T14:44:30;37.40;28.10
44607;DHT22;30315;46.072;14.474;2022-07-19T14:46:57;37.50;27.40
44607;DHT22;30315;46.072;14.474;2022-07-19T14:49:24;37.50;26.90
44607;DHT22;30315;46.072;14.474;2022-07-19T14:51:51;37.40;27.10
44607;DHT22;30315;46.072;14.474;2022-07-19T14:54:18;37.40;27.30
44607;DHT22;30315;46.072;14.474;2022-07-19T14:56:51;37.40;27.70
44607;DHT22;30315;46.072;14.474;2022-07-19T14:59:18;37.50;27.60
44607;DHT22;30315;46.072;14.474;2022-07-19T15:01:45;37.60;27.80
44607;DHT22;30315;46.072;14.474;2022-07-19T15:04:13;37.70;27.80
44607;DHT22;30315;46.072;14.474;2022-07-19T15:06:40;37.80;27.90
44607;DHT22;30315;46.072;14.474;2022-07-19T15:09:12;37.90;27.70
44607;DHT22;30315;46.072;14.474;2022-07-19T15:11:43;37.90;27.30
44607;DHT22;30315;46.072;14.474;2022-07-19T15:14:10;38.00;27.20
44607;DHT22;30315;46.072;14.474;2022-07-19T15:16:37;38.00;27.20
44607;DHT22;30315;46.072;14.474;2022-07-19T15:19:05;38.10;27.40
44607;DHT22;30315;46.072;14.474;2022-07-19T15:21:32;38.10;27.30
44607;DHT22;30315;46.072;14.474;2022-07-19T15:24:02;38.20;27.50
44607;DHT22;30315;46.072;14.474;2022-07-19T15:26:30;38.30;27.50
44607;DHT22;30315;46.072;14.474;2022-07-19T15:28:57;38.30;27.50
44607;DHT22;30315;46.072;14.474;2022-07-19T15:31:25;38.40;27.30
44607;DHT22;30315;46.072;14.474;2022-07-19T15:33:52;38.40;27.00
44607;DHT22;30315;46.072;14.474;2022-07-19T15:36:19;38.30;27.00
44607;DHT22;30315;46.072;14.474;2022-07-19T15:38:46;38.40;27.20
44607;DHT22;30315;46.072;14.474;2022-07-19T15:41:14;38.40;27.10
44607;DHT22;30315;46.072;14.474;2022-07-19T15:43:54;38.30;27.20
44607;DHT22;30315;46.072;14.474;2022-07-19T15:46:21;38.20;26.90
44607;DHT22;30315;46.072;14.474;2022-07-19T15:48:48;38.20;27.10
44607;DHT22;30315;46.072;14.474;2022-07-19T15:51:15;38.20;27.40
44607;DHT22;30315;46.072;14.474;2022-07-19T15:53:43;38.20;27.50
44607;DHT22;30315;46.072;14.474;2022-07-19T15:56:11;38.30;27.50
44607;DHT22;30315;46.072;14.474;2022-07-19T15:58:38;38.30;27.70